Faro, Portugal

7:36 PM WEST on August 30, 2014 (GMT +0100)
Faro | Change Station
CLOSE
Current Station
Airport
Location: Faro,
Elevation: 26 ft
Nearby Weather Stations

Elev 26 ft 37.01 °N, 7.97 °W | Updated 33 minutes ago

Clear
Clear
84 °F
Feels Like 84 °F
N
14
Wind Variable Wind from West

Today
High -- | Low -- °F
--% Chance of Precip.
Yesterday
High -- | Low -- °F
Precip. -- in
7:00 AM 8:03 PM
Waxing Crescent, 23% visible
Pressure 29.92 in
Visibility -9999.0 miles
Clouds
Dew Point 46 °F
Humidity 27%
Rainfall 0.00 in
Snow Depth Not available.
UV Not available.
Pollen Not available.
Air Quality Not available.
Flu Activity Not available.
SPECI LPFR 301803Z 28012KT CAVOK 29/08 Q1013

More Conditions Fewer Conditions

Pressure 29.92 in
Visibility -9999.0 miles
Clouds
Dew Point 46 °F
Humidity 27%
Rainfall 0.00 in
Snow Depth Not available.
UV Not available.
Pollen Not available.
Air Quality Not available.
Flu Activity Not available.
SPECI LPFR 301803Z 28012KT CAVOK 29/08 Q1013

More Conditions Fewer Conditions

10-Day Weather Forecast

Almanac

Astronomy

Aug. 30, 2014 Rise Set
Actual Time 7:00 AM WEST 8:03 PM WEST
Civil Twilight 6:34 AM WEST 8:30 PM WEST
Nautical Twilight 6:02 AM WEST 9:01 PM WEST
Astronomical Twilight 5:29 AM WEST 9:34 PM WEST
Moon 11:27 AM WEST 10:37 PM WEST
Length of Visible Light 13h 56m
Length of Day
13h 02m
Tomorrow will be 2m 15s shorter.
Waxing Crescent, 23% of the Moon is Illuminated
Today
Waxing Crescent
Sep 2
First Quarter
Sep 8
Full
Sep 15
Last Quarter
Sep 24
New

Today's Extremes

Country Highs Country Lows

Community

WunderPhotos

Upload Photos

1,748,591 photos uploaded!

WunderBlogs® & News

Nearby

Snow Depth

Not available.

Earthquake Activity

City Distance Mag. Time & Date
No recent earthquake activity has been reported nearby.
Minimum magnitude displayed is 2.5.

Coastal Water Temperatures

Place Temperature
No Stations Reporting

Nearby Weather Stations